Flight Track Log - Related Links

Times and Time Zones

All times are in EDT time to prevent confusion due to time zone crossing. See the KCE2 flight status page for this flight to view local times or setup timezone preferences in your user account.

Time Position Orientation Groundspeed Altitude Reporting Facility
EDT Latitude Longitude Course Direction KTS MPH feet Rate Location/Type
Thu 06:16:02 AM 45.2950 -66.0360 278° West 328 377 10,100  Level FlightAware
Thu 06:16:42 AM 45.3060 -66.1230 280° West 337 388 13,000 4,425 Climbing FlightAware
Thu 06:17:22 AM 45.3180 -66.2120 281° West 339 390 16,000 4,376 Climbing FlightAware
Thu 06:18:07 AM 45.3310 -66.3120 281° West 339 390 19,200 4,235 Climbing FlightAware
Thu 06:18:47 AM 45.3430 -66.4010 281° West 338 389 22,000 3,318 Climbing FlightAware
Thu 06:19:32 AM 45.3560 -66.5040 280° West 365 420 23,900 2,541 Climbing FlightAware
Thu 06:20:12 AM 45.3690 -66.5990 281° West 379 436 25,600 2,471 Climbing FlightAware
Thu 06:20:57 AM 45.3810 -66.7110 279° West 391 450 27,400 2,471 Climbing FlightAware
Thu 06:21:37 AM 45.3900 -66.8160 277° West 399 459 29,100 2,550 Climbing FlightAware
Thu 06:22:17 AM 45.3990 -66.9190 277° West 402 463 30,800 2,475 Climbing FlightAware
Thu 06:22:57 AM 45.4080 -67.0220 277° West 400 460 32,400 2,471 Climbing FlightAware
Thu 06:23:42 AM 45.4180 -67.1410 277° West 394 453 34,300 2,118 Climbing FlightAware
Thu 06:24:22 AM 45.4260 -67.2430 276° West 402 463 35,400 1,271 Climbing FlightAware
Thu 06:25:07 AM 45.4360 -67.3660 277° West 423 487 36,100 424 Climbing FlightAware
Thu 06:25:47 AM 45.4460 -67.4800 277° West 449 517 36,000 -71 Descending FlightAware
Thu 06:26:32 AM 45.4560 -67.6120 276° West 450 518 36,000  Level FlightAware
Thu 06:27:12 AM 45.4660 -67.7310 277° West 449 517 36,000  Level FlightAware
Thu 06:27:52 AM 45.4750 -67.8500 276° West 449 517 36,000  Level FlightAware
Thu 06:28:37 AM 45.4850 -67.9790 276° West 449 517 36,000 635 Level FlightAware
Thu 06:29:17 AM 45.4930 -68.0960 276° West 441 507 36,900 1,835 Climbing FlightAware
Thu 06:30:02 AM 45.5030 -68.2220 277° West 422 486 38,600 1,835 Climbing FlightAware
Thu 06:30:42 AM 45.5110 -68.3330 276° West 422 486 39,500 1,050 Climbing FlightAware
Thu 06:31:22 AM 45.5190 -68.4430 276° West 429 494 40,000 353 Climbing FlightAware
Thu 06:32:07 AM 45.5280 -68.5740 276° West 447 514 40,000  Level FlightAware
Thu 06:32:47 AM 45.5360 -68.6930 276° West 460 529 40,000  Level FlightAware
Thu 06:33:32 AM 45.5460 -68.8290 276° West 458 527 40,000  Level FlightAware
Thu 06:34:12 AM 45.5540 -68.9530 275° West 458 527 40,000  Level FlightAware
Thu 06:34:52 AM 45.5620 -69.0630 276° West 457 526 40,000  Level FlightAware
Thu 06:35:37 AM 45.5710 -69.2060 275° West 455 524 40,000  Level FlightAware
Thu 06:36:17 AM 45.5790 -69.3220 276° West 452 520 40,000  Level FlightAware
Thu 06:37:02 AM 45.5870 -69.4540 275° West 448 516 40,000  Level FlightAware
Thu 06:37:32 AM 45.5920 -69.5300 275° West 447 514 40,000  Level FlightAware
Thu 06:38:22 AM 45.6010 -69.6870 275° West 446 513 40,000  Level FlightAware
Thu 06:39:07 AM 45.6090 -69.8180 275° West 445 512 40,000  Level FlightAware
Thu 06:39:47 AM 45.6160 -69.9340 275° West 444 511 40,000  Level FlightAware
Thu 06:40:32 AM 45.6230 -70.0650 274° West 443 510 40,000  Level FlightAware
Thu 06:41:12 AM 45.6300 -70.1820 275° West 443 510 40,000  Level FlightAware
Thu 06:41:52 AM 45.6370 -70.2970 275° West 445 512 40,000  Level FlightAware
Thu 06:42:37 AM 45.6440 -70.4290 274° West 447 514 40,000  Level FlightAware
Thu 06:43:17 AM 45.6500 -70.5470 274° West 450 518 40,000  Level FlightAware
Thu 06:43:57 AM 45.6560 -70.6650 274° West 452 520 40,000  Level FlightAware
Thu 06:44:42 AM 45.6630 -70.7990 274° West 454 522 40,000 -1,129 Level FlightAware
Thu 06:45:22 AM 45.6690 -70.9190 274° West 458 527 38,400 -2,400 Descending FlightAware
Thu 06:46:07 AM 45.6760 -71.0520 274° West 445 512 36,600 -2,612 Descending FlightAware
Thu 06:46:47 AM 45.6810 -71.1670 274° West 446 513 34,700 -2,925 Descending FlightAware
Thu 06:47:27 AM 45.6870 -71.2890 274° West 462 532 32,700 -2,753 Descending FlightAware
Thu 06:48:12 AM 45.6930 -71.4250 274° West 473 544 30,800 -2,541 Descending FlightAware
Thu 06:48:52 AM 45.6990 -71.5530 274° West 479 551 29,100 -2,541 Descending FlightAware
Thu 06:49:37 AM 45.7050 -71.6930 274° West 470 541 27,200 -2,471 Descending FlightAware
Thu 06:50:17 AM 45.7100 -71.8150 273° West 463 533 25,600 -2,400 Descending FlightAware
Thu 06:50:57 AM 45.7150 -71.9330 274° West 444 511 24,000 -2,329 Descending FlightAware
Thu 06:51:42 AM 45.7200 -72.0630 273° West 425 489 22,300 -2,259 Descending FlightAware
Thu 06:52:22 AM 45.7250 -72.1740 274° West 414 476 20,800 -2,250 Descending FlightAware
Thu 06:53:02 AM 45.7290 -72.2820 273° West 410 472 19,300 -2,188 Descending FlightAware
Thu 06:53:47 AM 45.7330 -72.4030 273° West 406 467 17,700 -2,118 Descending FlightAware
Thu 06:54:27 AM 45.7370 -72.5080 273° West 403 464 16,300 -2,118 Descending FlightAware
Thu 06:55:12 AM 45.7410 -72.6270 273° West 389 448 14,700 -2,047 Descending FlightAware
Thu 06:55:52 AM 45.7450 -72.7280 273° West 385 443 13,400 -1,976 Descending FlightAware
Thu 06:56:37 AM 45.7380 -72.8390 265° West 369 425 11,900 -1,976 Descending FlightAware
Thu 06:57:17 AM 45.7280 -72.9350 262° West 360 414 10,600 -1,971 Descending FlightAware
Thu 06:57:47 AM 45.7200 -73.0070 261° West 331 381 9,600 -1,745 Descending FlightAware
Thu 06:58:12 AM 45.7150 -73.0590 262° West 310 357 9,000 -1,636 Descending FlightAware
Thu 06:58:42 AM 45.7090 -73.1170 262° West 279 321 8,100 -1,527 Descending FlightAware
Thu 06:59:07 AM 45.7010 -73.1590 255° West 254 292 7,600 -1,350 Descending FlightAware
Thu 06:59:22 AM 45.6960 -73.1850 255° West 246 283 7,200 -1,200 Descending FlightAware
Thu 06:59:47 AM 45.6890 -73.2210 254° West 245 282 6,800 -1,350 Descending FlightAware
Thu 07:00:02 AM 45.6840 -73.2460 254° West 248 285 6,300 -1,333 Descending FlightAware
Thu 07:00:32 AM 45.6910 -73.2920 282° West 248 285 5,800 -933 Descending FlightAware
Thu 07:00:47 AM 45.6990 -73.3130 299° West 247 284 5,600 -900 Descending FlightAware
Thu 07:01:12 AM 45.7130 -73.3490 299° West 245 282 5,200 -900 Descending FlightAware
Thu 07:01:27 AM 45.7200 -73.3700 296° West 240 276 5,000 -267 Descending FlightAware
Thu 07:01:57 AM 45.7110 -73.4090 252° West 216 249 5,000  Level FlightAware
Thu 07:02:22 AM 45.6920 -73.4330 221° Southwest 207 238 5,000 -218 Level FlightAware
Thu 07:02:52 AM 45.6700 -73.4600 221° Southwest 210 242 4,800 -700 Descending FlightAware
Thu 07:03:22 AM 45.6490 -73.4870 222° Southwest 192 221 4,300 -873 Descending FlightAware
Thu 07:03:47 AM 45.6350 -73.5070 225° Southwest 172 198 4,000 -327 Descending FlightAware
Thu 07:04:17 AM 45.6180 -73.5290 222° Southwest 161 185 4,000 -436 Level FlightAware
Thu 07:04:42 AM 45.6040 -73.5490 225° Southwest 166 191 3,600 -1,091 Descending FlightAware
Thu 07:05:12 AM 45.5870 -73.5720 223° Southwest 164 189 3,000 -1,067 Descending FlightAware
Thu 07:05:27 AM 45.5790 -73.5820 221° Southwest 159 183 2,800 -750 Descending FlightAware
Thu 07:05:52 AM 45.5650 -73.6000 222° Southwest 147 169 2,500 -750 Descending FlightAware
Thu 07:06:07 AM 45.5580 -73.6090 222° Southwest 143 165 2,300 -533 Descending FlightAware
Thu 07:06:37 AM 45.5440 -73.6280 224° Southwest 144 166 2,100 -600 Descending FlightAware
Thu 07:07:07 AM 45.5290 -73.6480 223° Southwest 146 168 1,700 -900 Descending FlightAware
Thu 07:07:37 AM 45.5150 -73.6670 224° Southwest 133 153 1,200 -873 Descending FlightAware
Thu 07:08:02 AM 45.5030 -73.6820 221° Southwest 135 155 900 -655 Descending FlightAware
Thu 07:08:32 AM 45.4920 -73.6970 224° Southwest 134 154 600 -655 Descending FlightAware
Thu 07:08:57 AM 45.4820 -73.7100 222° Southwest 128 147 300 -720 Descending FlightAware

Login

Don't have an account? Register now (free) for customized features, flight alerts, and more!